SAVY/PMY METAR and TAF weather

Enter ICAO airport designator
Station Type Date Time Source
SAVY METAR 2021/05/21 16:25 UTC NOAA

SAVY 211625Z 18003KT 1000 -RABR SCT015 SCT018 OVC045 11/10 Q1017


Station Type Date Time Source
SAVY Decoded METAR 2021/05/21 16:25 UTC NOAA

Puerto Madryn, CHT, Argentina (SAVY) 42-45-33S 065-06-10W
May 21, 2021 - 12:25 PM EDT / 2021.05.21 1625 UTC
Wind: from the S (180 degrees) at 3 MPH (3 KT):0
Visibility: less than 1 mile:0
Sky conditions: overcast
Weather: light rain, mist
Temperature: 51 F (11 C)
Dew Point: 50 F (10 C)
Relative Humidity: 93%
Pressure (altimeter): 30.03 in. Hg (1017 hPa)
ob: SAVY 211625Z 18003KT 1000 -RABR SCT015 SCT018 OVC045 11/10 Q1017
cycle: 16

Station Type Date Time Source
SAVY TAF UTC NOAA

Error!

Example: see airport list